Text Box: All records at near 07:00 local time
Kleivo 1 weather for Mar 2009
Month no. 28
Obs.
Da.
Temp. Dew Point Precip. Wind
Speed
Wind gusts Cloud cover Press. Humidity Wind dir. Sunny OPT
01.03.2009 3,6 1,3 3,1 0,0 0,0 10 988,7 85,0 0,0 1 80,0 %
02.03.2009 2,8 1,5 2,5 0,0 0,0 1 985,7 91,0 0,0   60,0 %
03.03.2009 3,9 1,9 0,0 0,0 0,0 1 983,0 87,0 0,0   60,0 %
04.03.2009 6,6 0,7 2,5 0,0 0,0 2 972,1 66,0 0,0   65,0 %
05.03.2009 6,2 -2,7 0,0 0,0 0,0 1 975,5 53,0 0,0   62,5 %
06.03.2009 1,8 0,3 0,0 0,0 0,0 2 983,6 90,0 0,0   60,0 %
07.03.2009 1,7 0,2 18,4 0,0 0,0 2 987,0 90,0 0,0   45,0 %
08.03.2009 3,6 1,9 3,6 0,0 0,0 3 963,7 89,0 0,0 1 62,5 %
09.03.2009 2,9 1,9 10,7 0,0 0,0 1 968,4 93,0 0,0   52,5 %
10.03.2009 2,7 1,7 10,7 0,0 0,0 2 980,9 93,0 0,0   55,0 %
11.03.2009 -1,1 -1,9 0,0 0,0 0,0 3 996,2 94,0 0,0 1 60,0 %
12.03.2009 1,9 0,7 1,5 0,0 0,0 3 988,0 92,0 0,0 1 62,5 %
13.03.2009 3,2 2,3 12,8 0,0 0,0 1 991,8 94,0 0,0   50,0 %
14.03.2009 4,1 2,3 3,6 11,9 11,9 1 991,8 88,0 135,0   50,0 %
15.03.2009 4,2 2,9 0,0 0,0 0,0 1 998,9 91,0 337,5   60,0 %
16.03.2009 5,8 5,1 0,0 11,1 11,1 1 1005,0 95,0 157,5   55,0 %
17.03.2009 4,2 3,0 0,0 3,7 3,7 3 1009,0 92,0 0,0 1 62,5 %
18.03.2009 5,6 3,2 6,1 1,9 1,9 10 1012,4 94,0 180,0 1 80,0 %
19.03.2009 -0,9 -2,1 0,0 0,0 0,0 10 1013,8 93,0 0,0 1 77,5 %
20.03.2009 1,5 -3,4 0,0 14,8 14,8 8 1015,1 70,0 112,5 1 65,0 %
21.03.2009 3,3 0,8 0,0 0,0 0,0 1 1007,3 84,0 0,0   60,0 %
22.03.2009 6,4 5,5 0,0 1,9 0,0 1 994,5 94,0 270,0   62,5 %
23.03.2009 0,8 -0,1 5,1 2,1 2,1 1 978,2 94,0 0,0   55,0 %
24.03.2009 -4,1 -6,6 4,1 0,0 0,0 10 989,1 83,0 45,0 1 72,5 %
25.03.2009 2,9 -4,3 0,0 0,0 0,0 10 977,9 59,0 157,5 1 82,5 %
26.03.2009 0,1 -6,6 0,0 16,7 16,7 10 979,9 61,0 157,5 1 70,0 %
27.03.2009 2,3 -4,9 0,0 29,6 29,6 10 967,0 59,0 135,0 1 60,0 %
28.03.2009 -1,1 -5,7 0,0 4,3 4,3 10 975,5 71,0 337,5 1 75,0 %
29.03.2009 -2,7 -4,7 0,0 1,9 2,1 10 986,0 86,0 0,0 1 75,0 %
30.03.2009 3,6 2,3 0,0 18,5 18,5 2 986,0 91,0 202,5   50,0 %
31.03.2009 4,3 3,1 12,8 3,7 3,7 2 994,1 92,0 135,0   50,0 %
Avrg/Sum 2,6 0,0 97,5 3,9 3,9 4,3 988,6 84,3 76,2 14 62,5 %